Time;durP1;ratioP1;P1;durP2;ratioP2;P2;SDS_P1;SDS_P2;PMS_P1;PMS_P2;Temp;Humidity;BMP_temperature;BMP_pressure;BME280_temperature;BME280_humidity;BME280_pressure;Samples;Min_cycle;Max_cycle;Signal;HPM_P1;HPM_P2
2023/05/19 00:02:20;;;;;;;21.30;13.90;;;;;;;19.12;100.00;101065.70;106532;1257;62453;-80
2023/05/19 00:05:10;;;;;;;20.50;13.40;;;;;;;19.09;100.00;101065.94;106363;1253;76948;-88
2023/05/19 00:07:59;;;;;;;22.20;14.20;;;;;;;19.19;100.00;101064.31;106434;1251;70463;-88
2023/05/19 00:10:48;;;;;;;22.60;14.10;;;;;;;19.12;100.00;101065.08;106444;1253;73601;-79
2023/05/19 00:13:36;;;;;;;22.60;13.80;;;;;;;19.01;100.00;101066.92;106280;1254;64414;-78
2023/05/19 00:16:25;;;;;;;22.00;14.70;;;;;;;19.05;100.00;101065.91;106292;1254;62143;-89
2023/05/19 00:19:13;;;;;;;22.10;14.10;;;;;;;19.00;100.00;101064.66;106574;1251;77167;-79
2023/05/19 00:22:01;;;;;;;20.70;13.30;;;;;;;18.90;100.00;101065.20;106464;1251;71116;-80
2023/05/19 00:24:49;;;;;;;20.10;12.90;;;;;;;18.60;100.00;101064.15;106430;1253;74807;-80
2023/05/19 00:27:37;;;;;;;23.00;15.00;;;;;;;18.35;100.00;101062.86;106352;1254;63882;-80
2023/05/19 00:30:25;;;;;;;23.30;15.60;;;;;;;18.36;100.00;101062.96;106509;1251;61462;-80
2023/05/19 00:33:13;;;;;;;24.00;15.30;;;;;;;18.49;100.00;101056.48;106445;1251;75505;-79
2023/05/19 00:36:02;;;;;;;24.80;14.50;;;;;;;18.46;100.00;101056.43;106304;1254;70831;-79
2023/05/19 00:38:51;;;;;;;25.60;15.40;;;;;;;18.41;100.00;101061.26;106264;1253;74539;-88
2023/05/19 00:41:39;;;;;;;22.70;14.40;;;;;;;18.36;100.00;101059.17;106501;1258;62523;-79
2023/05/19 00:44:27;;;;;;;20.90;13.10;;;;;;;18.43;100.00;101061.04;106338;1251;62088;-79
2023/05/19 00:47:15;;;;;;;23.50;12.80;;;;;;;18.24;100.00;101065.58;106437;1256;77009;-79
2023/05/19 00:50:04;;;;;;;22.20;14.10;;;;;;;18.04;100.00;101066.03;106366;1254;71051;-88
2023/05/19 00:52:53;;;;;;;22.30;14.00;;;;;;;18.00;100.00;101067.58;106428;1252;74985;-88
2023/05/19 00:55:41;;;;;;;22.90;13.60;;;;;;;17.95;100.00;101066.81;106392;1253;64233;-79
2023/05/19 00:58:31;;;;;;;23.40;14.90;;;;;;;18.07;100.00;101062.92;106383;1260;62490;-87
2023/05/19 01:01:20;;;;;;;23.50;14.90;;;;;;;17.88;100.00;101063.88;106361;1251;77208;-87
2023/05/19 01:04:10;;;;;;;23.30;13.70;;;;;;;17.77;100.00;101060.97;106384;1252;70889;-87
2023/05/19 01:06:58;;;;;;;24.30;15.00;;;;;;;17.94;100.00;101062.59;106299;1256;73618;-88
2023/05/19 01:09:46;;;;;;;26.50;15.70;;;;;;;17.75;100.00;101060.08;106235;1254;62856;-87
2023/05/19 01:12:35;;;;;;;23.80;14.60;;;;;;;17.83;100.00;101061.29;106275;1254;61645;-87
2023/05/19 01:15:23;;;;;;;21.80;13.50;;;;;;;17.78;100.00;101061.89;106390;1254;75632;-89
2023/05/19 01:18:13;;;;;;;23.00;13.60;;;;;;;17.85;100.00;101067.77;106290;1254;69345;-88
2023/05/19 01:21:43;;;;;;;21.40;13.30;;;;;;;17.68;100.00;101066.00;106281;1254;74863;-88
2023/05/19 01:24:59;;;;;;;24.20;15.00;;;;;;;17.56;100.00;101067.16;106122;1254;61980;-88
2023/05/19 01:27:59;;;;;;;23.10;14.10;;;;;;;17.37;100.00;101073.92;106272;1253;61927;-88
2023/05/19 01:30:48;;;;;;;22.90;13.90;;;;;;;17.21;100.00;101075.33;106165;1259;76969;-88
2023/05/19 01:33:36;;;;;;;23.80;14.90;;;;;;;17.22;100.00;101075.92;106341;1254;69909;-79
2023/05/19 01:36:24;;;;;;;25.00;14.50;;;;;;;17.08;100.00;101075.58;106411;1253;73651;-79
2023/05/19 01:39:12;;;;;;;20.60;13.20;;;;;;;17.21;100.00;101071.86;106251;1254;61667;-80
2023/05/19 01:42:02;;;;;;;21.50;12.50;;;;;;;17.29;100.00;101068.27;106239;1254;61803;-80
2023/05/19 01:44:50;;;;;;;22.70;14.20;;;;;;;17.17;100.00;101069.70;106218;1259;76877;-88
2023/05/19 01:47:41;;;;;;;23.90;14.80;;;;;;;17.07;100.00;101069.42;106368;1254;71576;-88
2023/05/19 01:50:29;;;;;;;23.90;14.50;;;;;;;16.37;100.00;101074.34;106133;1254;75005;-87
2023/05/19 01:53:17;;;;;;;26.00;14.90;;;;;;;17.03;100.00;101075.10;106447;1253;62017;-88
2023/05/19 01:56:06;;;;;;;24.40;13.90;;;;;;;17.12;100.00;101078.34;106184;1253;62521;-86
2023/05/19 01:58:59;;;;;;;21.50;13.60;;;;;;;17.25;100.00;101074.42;106177;1254;75906;-79
2023/05/19 02:01:52;;;;;;;23.00;13.10;;;;;;;17.17;100.00;101076.62;106122;1257;70747;-79
2023/05/19 02:04:43;;;;;;;21.80;13.70;;;;;;;16.90;100.00;101078.55;106317;1257;72974;-80
2023/05/19 02:07:41;;;;;;;19.70;13.20;;;;;;;16.77;100.00;101082.84;106651;1254;63098;-80
2023/05/19 02:10:29;;;;;;;21.70;13.50;;;;;;;16.67;100.00;101079.58;106491;1251;62593;-84
2023/05/19 02:13:20;;;;;;;23.10;15.10;;;;;;;16.73;100.00;101080.54;106465;1253;77407;-80
2023/05/19 02:16:08;;;;;;;21.00;13.70;;;;;;;16.99;100.00;101085.60;106351;1251;71120;-79
2023/05/19 02:18:58;;;;;;;23.20;14.00;;;;;;;16.61;100.00;101095.54;106209;1254;73443;-89
2023/05/19 02:21:46;;;;;;;27.00;14.60;;;;;;;16.49;100.00;101093.43;106240;1259;61379;-80
2023/05/19 02:24:36;;;;;;;22.90;14.70;;;;;;;16.43;100.00;101097.01;106386;1251;63463;-80
2023/05/19 02:27:25;;;;;;;19.50;13.60;;;;;;;16.36;100.00;101102.42;106291;1251;76988;-80
2023/05/19 02:30:13;;;;;;;22.80;14.30;;;;;;;16.72;100.00;101105.93;106261;1251;69328;-80
2023/05/19 02:33:01;;;;;;;21.40;13.90;;;;;;;16.71;100.00;101108.38;106475;1254;75234;-89
2023/05/19 02:35:49;;;;;;;23.80;13.50;;;;;;;16.60;100.00;101107.14;106263;1253;62957;-89
2023/05/19 02:38:37;;;;;;;21.60;14.20;;;;;;;16.95;100.00;101110.09;106377;1253;62417;-80
2023/05/19 02:41:25;;;;;;;24.20;14.30;;;;;;;17.08;100.00;101109.23;106372;1254;75298;-89
2023/05/19 02:44:14;;;;;;;21.50;13.30;;;;;;;17.04;100.00;101114.45;106314;1256;71156;-88
2023/05/19 02:47:02;;;;;;;21.40;12.90;;;;;;;17.18;100.00;101117.39;106266;1254;73936;-89
2023/05/19 02:49:50;;;;;;;25.70;14.10;;;;;;;17.20;100.00;101114.23;106368;1254;62569;-79
2023/05/19 02:52:38;;;;;;;20.30;13.00;;;;;;;17.19;100.00;101124.30;106360;1251;61552;-89
2023/05/19 02:55:26;;;;;;;21.20;13.20;;;;;;;16.98;100.00;101125.38;106245;1254;76673;-79
2023/05/19 02:58:14;;;;;;;20.30;13.10;;;;;;;16.88;100.00;101128.05;106364;1251;70798;-79
2023/05/19 03:01:03;;;;;;;21.30;13.40;;;;;;;17.17;100.00;101128.60;106112;1251;208958;-89
2023/05/19 03:03:51;;;;;;;22.50;14.10;;;;;;;17.52;100.00;101128.36;106277;1253;62950;-80
2023/05/19 03:06:41;;;;;;;20.90;14.40;;;;;;;17.01;100.00;101136.31;106382;1251;61337;-80
2023/05/19 03:09:30;;;;;;;21.60;14.50;;;;;;;17.53;100.00;101131.14;106371;1252;75296;-84
2023/05/19 03:12:18;;;;;;;22.60;13.80;;;;;;;17.55;100.00;101129.34;106409;1254;70303;-79
2023/05/19 03:15:07;;;;;;;21.20;13.90;;;;;;;17.78;100.00;101128.52;106213;1254;74983;-79
2023/05/19 03:17:55;;;;;;;29.90;13.20;;;;;;;17.92;100.00;101133.64;106277;1256;64248;-80
2023/05/19 03:20:44;;;;;;;25.20;14.80;;;;;;;18.10;100.00;101134.30;106667;1251;62212;-81
2023/05/19 03:23:32;;;;;;;28.20;15.10;;;;;;;18.26;100.00;101133.81;106463;1252;76789;-80
2023/05/19 03:26:21;;;;;;;25.10;13.40;;;;;;;18.44;100.00;101137.66;106430;1251;70938;-89
2023/05/19 03:29:10;;;;;;;21.30;13.70;;;;;;;18.44;100.00;101137.77;106511;1254;73550;-89
2023/05/19 03:32:00;;;;;;;26.80;14.40;;;;;;;18.68;100.00;101138.59;106295;1257;61275;-88
2023/05/19 03:34:48;;;;;;;22.60;14.70;;;;;;;18.77;100.00;101137.38;106448;1251;62634;-80
2023/05/19 03:37:37;;;;;;;21.60;12.80;;;;;;;19.08;100.00;101142.58;106456;1253;76429;-89
2023/05/19 03:40:25;;;;;;;26.70;14.50;;;;;;;19.23;100.00;101141.14;106347;1254;71187;-80
2023/05/19 03:43:17;;;;;;;21.60;13.20;;;;;;;19.15;100.00;101144.90;106364;1254;74880;-80
2023/05/19 03:46:09;;;;;;;23.50;13.80;;;;;;;19.74;100.00;101147.37;106327;1251;62547;-89
2023/05/19 03:49:16;;;;;;;25.40;14.20;;;;;;;20.01;100.00;101144.20;106413;1253;62681;-81
2023/05/19 03:52:23;;;;;;;26.70;14.90;;;;;;;20.18;100.00;101141.31;106442;1251;74529;-81
2023/05/19 03:55:20;;;;;;;23.40;14.50;;;;;;;20.49;100.00;101138.31;106415;1251;70671;-81
2023/05/19 03:58:09;;;;;;;23.90;13.30;;;;;;;20.90;100.00;101135.02;106711;1254;74642;-89
2023/05/19 04:00:57;;;;;;;24.40;14.10;;;;;;;21.29;100.00;101131.23;106565;1254;61346;-81
2023/05/19 04:03:45;;;;;;;22.60;13.40;;;;;;;21.46;100.00;101133.58;106514;1254;62641;-90
2023/05/19 04:06:35;;;;;;;23.60;14.40;;;;;;;21.69;100.00;101135.06;106253;1254;76616;-81
2023/05/19 04:09:23;;;;;;;17.90;12.30;;;;;;;21.97;100.00;101136.52;106403;1256;71046;-82
2023/05/19 04:12:11;;;;;;;23.10;13.50;;;;;;;22.21;100.00;101134.29;106215;1255;74714;-83
2023/05/19 04:14:59;;;;;;;19.90;12.10;;;;;;;22.19;100.00;101135.38;106281;1253;62057;-81
2023/05/19 04:17:47;;;;;;;20.10;11.40;;;;;;;22.48;100.00;101130.90;106346;1252;62467;-81
2023/05/19 04:20:36;;;;;;;17.90;12.10;;;;;;;22.50;100.00;101132.71;106729;1256;76989;-89
2023/05/19 04:23:24;;;;;;;16.50;9.30;;;;;;;22.34;100.00;101133.13;106650;1254;70822;-82
2023/05/19 04:26:13;;;;;;;15.70;9.20;;;;;;;22.75;99.48;101135.41;106354;1254;74944;-91
2023/05/19 04:29:03;;;;;;;16.70;8.80;;;;;;;23.12;88.52;101140.98;106642;1259;63153;-81
2023/05/19 04:31:51;;;;;;;14.40;8.40;;;;;;;23.15;86.30;101144.40;106670;1251;61430;-88
2023/05/19 04:34:44;;;;;;;13.20;8.60;;;;;;;23.53;79.78;101148.82;106397;1259;75523;-81
2023/05/19 04:37:37;;;;;;;15.40;8.70;;;;;;;24.01;68.78;101153.97;106415;1254;71149;-81
2023/05/19 04:40:25;;;;;;;13.30;8.10;;;;;;;23.91;65.10;101159.97;106384;1259;74555;-88
2023/05/19 04:43:14;;;;;;;13.90;8.50;;;;;;;24.13;59.56;101164.13;106406;1254;62662;-81
2023/05/19 04:46:04;;;;;;;15.40;8.50;;;;;;;24.20;56.36;101163.38;106357;1254;62577;-89
2023/05/19 04:48:55;;;;;;;18.70;9.80;;;;;;;24.57;54.69;101162.77;106269;1251;75148;-81
2023/05/19 04:51:44;;;;;;;16.30;9.30;;;;;;;24.76;53.41;101165.74;106298;1254;71124;-81
2023/05/19 04:54:37;;;;;;;15.50;9.20;;;;;;;24.88;52.66;101170.06;106154;1253;74842;-81
2023/05/19 04:57:25;;;;;;;15.70;8.60;;;;;;;25.02;51.65;101169.69;106408;1251;62204;-81
2023/05/19 05:00:14;;;;;;;15.30;8.60;;;;;;;24.90;50.34;101166.91;106203;1254;63283;-89
2023/05/19 05:03:23;;;;;;;12.10;8.70;;;;;;;25.14;48.93;101168.23;106448;1254;76267;-81
2023/05/19 05:06:11;;;;;;;13.20;8.10;;;;;;;25.59;46.57;101162.25;106338;1251;71163;-80
2023/05/19 05:08:59;;;;;;;16.50;8.60;;;;;;;25.61;45.27;101171.08;106736;1252;66205;-89
2023/05/19 05:11:48;;;;;;;12.80;8.00;;;;;;;25.49;44.62;101178.06;106322;1256;61429;-81
2023/05/19 05:14:38;;;;;;;11.80;7.70;;;;;;;25.63;45.75;101178.39;106451;1251;61490;-81
2023/05/19 05:17:28;;;;;;;15.60;8.50;;;;;;;25.91;44.84;101171.93;106251;1256;68051;-81
2023/05/19 05:20:18;;;;;;;14.80;8.60;;;;;;;26.15;44.85;101173.23;106466;1256;61465;-89
2023/05/19 05:23:08;;;;;;;14.20;8.10;;;;;;;26.40;43.78;101175.11;106348;1254;66253;-88
2023/05/19 05:25:57;;;;;;;15.90;8.50;;;;;;;26.51;43.31;101177.73;106411;1251;61246;-81
2023/05/19 05:28:45;;;;;;;13.70;8.40;;;;;;;26.75;43.20;101178.75;106671;1251;61104;-89
2023/05/19 05:31:35;;;;;;;13.70;8.60;;;;;;;26.95;42.57;101177.77;106363;1254;76980;-82
2023/05/19 05:34:24;;;;;;;15.10;7.80;;;;;;;27.27;42.06;101179.91;106509;1251;62017;-81
2023/05/19 05:37:12;;;;;;;13.60;8.10;;;;;;;27.20;42.20;101178.52;106338;1251;66122;-81
2023/05/19 05:40:03;;;;;;;11.40;8.00;;;;;;;27.28;42.13;101181.45;106376;1251;61252;-86
2023/05/19 05:42:54;;;;;;;10.90;7.60;;;;;;;27.63;41.13;101182.56;106370;1254;61518;-81
2023/05/19 05:45:42;;;;;;;14.00;8.00;;;;;;;27.71;40.97;101184.29;106348;1252;68024;-80
2023/05/19 05:48:31;;;;;;;15.00;8.60;;;;;;;27.90;39.98;101187.70;106447;1251;62259;-80
2023/05/19 05:51:23;;;;;;;11.60;8.00;;;;;;;28.09;39.45;101186.27;106438;1251;66421;-87
2023/05/19 05:54:12;;;;;;;11.90;7.90;;;;;;;28.37;39.47;101194.09;106408;1257;61202;-88
2023/05/19 05:57:04;;;;;;;13.20;8.40;;;;;;;28.49;38.62;101196.66;106319;1254;60710;-88
2023/05/19 05:59:52;;;;;;;16.40;9.10;;;;;;;28.22;39.03;101191.02;106363;1256;67848;-88
2023/05/19 06:02:45;;;;;;;14.70;8.00;;;;;;;28.10;39.58;101191.59;106447;1254;62085;-88
2023/05/19 06:05:35;;;;;;;14.00;7.80;;;;;;;28.01;39.34;101194.42;106532;1253;65960;-88
2023/05/19 06:08:23;;;;;;;15.70;8.50;;;;;;;28.12;39.33;101197.23;106386;1259;61277;-88
2023/05/19 06:11:11;;;;;;;16.60;7.80;;;;;;;28.29;39.21;101195.02;106456;1256;61317;-87
2023/05/19 06:14:00;;;;;;;14.30;7.90;;;;;;;28.78;38.60;101196.73;106445;1256;68157;-89
2023/05/19 06:17:05;;;;;;;12.30;7.60;;;;;;;29.15;37.84;101196.37;106268;1251;61104;-80
2023/05/19 06:19:54;;;;;;;13.30;7.80;;;;;;;29.10;37.96;101198.59;106356;1253;64971;-81
2023/05/19 06:22:42;;;;;;;14.90;7.90;;;;;;;29.25;37.88;101200.57;106504;1257;61249;-80
2023/05/19 06:25:31;;;;;;;11.90;7.70;;;;;;;29.62;37.29;101196.19;106456;1250;61234;-81
2023/05/19 06:28:20;;;;;;;11.70;7.50;;;;;;;30.01;37.24;101196.27;106406;1251;67971;-80
2023/05/19 06:31:09;;;;;;;15.40;7.70;;;;;;;30.21;36.91;101200.87;106227;1253;62189;-80
2023/05/19 06:34:05;;;;;;;13.70;8.10;;;;;;;30.47;36.12;101202.27;106152;1254;66088;-80
2023/05/19 06:36:54;;;;;;;10.90;7.70;;;;;;;30.72;35.47;101202.19;106475;1256;61206;-80
2023/05/19 06:39:42;;;;;;;12.60;7.20;;;;;;;30.52;35.54;101202.33;106375;1256;61321;-81
2023/05/19 06:42:31;;;;;;;14.90;7.50;;;;;;;30.05;36.09;101210.45;106418;1254;68042;-88
2023/05/19 06:45:27;;;;;;;13.80;7.00;;;;;;;30.97;35.27;101209.95;106469;1257;62237;-88
2023/05/19 06:48:16;;;;;;;14.50;7.60;;;;;;;31.34;34.60;101207.35;106294;1251;64844;-89
2023/05/19 06:51:04;;;;;;;12.20;7.10;;;;;;;31.78;34.17;101209.16;106199;1254;61240;-88
2023/05/19 06:53:52;;;;;;;14.10;6.80;;;;;;;32.28;33.58;101210.14;106398;1256;61138;-89
2023/05/19 06:56:41;;;;;;;10.80;7.20;;;;;;;32.39;32.32;101211.70;106379;1251;67059;-88
2023/05/19 06:59:30;;;;;;;13.00;7.70;;;;;;;32.26;32.41;101207.17;106388;1256;70057;-80
2023/05/19 07:02:19;;;;;;;11.90;7.70;;;;;;;32.39;32.59;101209.63;106354;1252;65328;-80
2023/05/19 07:05:08;;;;;;;13.30;7.50;;;;;;;32.60;32.40;101208.65;106339;1254;61800;-88
2023/05/19 07:07:56;;;;;;;10.20;6.80;;;;;;;32.75;31.71;101208.23;106330;1256;61176;-80
2023/05/19 07:10:46;;;;;;;12.50;6.90;;;;;;;32.86;30.59;101204.36;106428;1251;68366;-80
2023/05/19 07:13:35;;;;;;;10.50;7.60;;;;;;;32.43;31.32;101208.45;106381;1253;61340;-81
2023/05/19 07:16:24;;;;;;;11.80;7.40;;;;;;;32.41;31.74;101206.86;106394;1256;66213;-82
2023/05/19 07:19:12;;;;;;;11.70;6.80;;;;;;;32.67;31.57;101208.09;106578;1251;61323;-81
2023/05/19 07:22:03;;;;;;;12.80;7.50;;;;;;;33.35;30.57;101207.70;106348;1256;61224;-85
2023/05/19 07:24:51;;;;;;;12.70;7.70;;;;;;;33.32;30.65;101209.52;106413;1256;67776;-81
2023/05/19 07:27:40;;;;;;;13.20;6.80;;;;;;;33.11;30.54;101208.71;106468;1251;61250;-88
2023/05/19 07:30:28;;;;;;;12.00;7.20;;;;;;;33.76;30.51;101208.46;106378;1251;64977;-81
2023/05/19 07:33:16;;;;;;;12.00;7.00;;;;;;;33.94;29.88;101208.45;106429;1254;61343;-82
2023/05/19 07:36:05;;;;;;;9.90;7.40;;;;;;;33.68;30.11;101202.48;106311;1256;61312;-82
2023/05/19 07:38:53;;;;;;;14.10;7.80;;;;;;;33.75;29.76;101204.43;106325;1253;67017;-89
2023/05/19 07:41:41;;;;;;;13.30;7.30;;;;;;;33.79;28.58;101202.20;106427;1251;62303;-81
2023/05/19 07:44:33;;;;;;;12.60;6.90;;;;;;;33.60;28.31;101202.23;106436;1251;66249;-88
2023/05/19 07:47:21;;;;;;;11.10;7.30;;;;;;;33.50;28.87;101199.48;106515;1251;61339;-81
2023/05/19 07:50:09;;;;;;;10.10;6.70;;;;;;;33.60;28.58;101195.10;106649;1251;61341;-82
2023/05/19 07:52:57;;;;;;;11.30;6.70;;;;;;;33.86;28.04;101195.72;106531;1251;68059;-89
2023/05/19 07:55:46;;;;;;;9.40;6.70;;;;;;;34.16;27.34;101198.80;106405;1251;62159;-81
2023/05/19 07:58:34;;;;;;;11.00;6.50;;;;;;;33.68;28.43;101197.70;106544;1256;64885;-88
2023/05/19 08:01:22;;;;;;;13.30;6.80;;;;;;;33.72;28.27;101194.98;106401;1251;61321;-88
2023/05/19 08:04:11;;;;;;;11.20;7.40;;;;;;;33.53;28.27;101195.16;106542;1256;61627;-88
2023/05/19 08:07:02;;;;;;;11.20;6.60;;;;;;;33.50;28.16;101196.73;106440;1251;68135;-87
2023/05/19 08:09:50;;;;;;;8.10;6.10;;;;;;;33.82;28.32;101199.55;106721;1251;61170;-88
2023/05/19 08:12:38;;;;;;;12.30;6.90;;;;;;;33.98;27.67;101198.25;106418;1253;66057;-87
2023/05/19 08:15:26;;;;;;;10.20;6.90;;;;;;;34.44;27.10;101192.92;106592;1251;61272;-80
2023/05/19 08:18:14;;;;;;;11.80;6.90;;;;;;;34.11;28.02;101195.34;106453;1251;61148;-88
2023/05/19 08:21:03;;;;;;;10.80;7.10;;;;;;;34.77;27.31;101189.94;106472;1251;68155;-80
2023/05/19 08:23:51;;;;;;;9.80;6.30;;;;;;;35.11;26.09;101188.37;106435;1251;62178;-81
2023/05/19 08:26:39;;;;;;;11.20;6.80;;;;;;;35.33;25.67;101186.13;106681;1251;66775;-87
2023/05/19 08:29:27;;;;;;;9.50;6.50;;;;;;;35.56;25.39;101187.66;106524;1254;61326;-87
2023/05/19 08:32:16;;;;;;;11.50;6.10;;;;;;;35.48;25.26;101184.96;106525;1252;61346;-80
2023/05/19 08:35:04;;;;;;;10.40;6.20;;;;;;;35.23;25.72;101184.09;106374;1256;68112;-81
2023/05/19 08:37:52;;;;;;;10.80;6.50;;;;;;;34.47;25.58;101183.47;106639;1254;70073;-86
2023/05/19 08:40:41;;;;;;;10.80;6.60;;;;;;;35.03;25.87;101181.08;106579;1251;66053;-87
2023/05/19 08:43:29;;;;;;;10.60;7.30;;;;;;;35.55;25.31;101176.14;106469;1257;61176;-87
2023/05/19 08:46:17;;;;;;;10.40;6.10;;;;;;;35.80;25.25;101171.21;106570;1252;61307;-81
2023/05/19 08:49:11;;;;;;;10.30;7.00;;;;;;;36.06;24.75;101165.91;106418;1251;66640;-87
2023/05/19 08:52:14;;;;;;;11.30;6.70;;;;;;;36.30;24.22;101165.16;106380;1254;62110;-87
2023/05/19 08:55:08;;;;;;;13.00;7.60;;;;;;;36.10;23.87;101163.55;106366;1251;66336;-81
2023/05/19 08:57:56;;;;;;;10.30;6.60;;;;;;;36.11;24.02;101160.03;106611;1251;61288;-80
2023/05/19 09:00:45;;;;;;;8.70;6.00;;;;;;;35.95;23.13;101159.60;106453;1251;61321;-82
2023/05/19 09:03:36;;;;;;;11.60;6.60;;;;;;;34.90;23.93;101157.27;106392;1251;68107;-88
2023/05/19 09:06:25;;;;;;;10.60;7.30;;;;;;;34.80;24.13;101154.43;106638;1254;62556;-87
2023/05/19 09:09:14;;;;;;;9.60;6.60;;;;;;;35.61;23.49;101146.81;106399;1254;66231;-87
2023/05/19 09:12:05;;;;;;;9.10;7.10;;;;;;;35.90;24.08;101141.61;106407;1251;61237;-82
2023/05/19 09:14:54;;;;;;;11.00;7.10;;;;;;;36.12;23.88;101146.36;106360;1251;61410;-82
2023/05/19 09:17:43;;;;;;;10.20;6.90;;;;;;;35.95;23.76;101146.71;106356;1251;67958;-81
2023/05/19 09:20:31;;;;;;;8.40;6.40;;;;;;;35.77;23.67;101147.80;106217;1254;62081;-86
2023/05/19 09:23:19;;;;;;;8.80;6.30;;;;;;;35.54;23.51;101148.47;106349;1259;66022;-82
2023/05/19 09:26:08;;;;;;;9.00;6.70;;;;;;;35.53;24.12;101144.84;106464;1254;61404;-88
2023/05/19 09:28:57;;;;;;;10.90;7.00;;;;;;;35.70;23.52;101138.37;106463;1251;61131;-88
2023/05/19 09:31:54;;;;;;;9.30;6.50;;;;;;;35.95;22.50;101132.91;106333;1251;67233;-85
2023/05/19 09:34:42;;;;;;;10.50;7.00;;;;;;;36.19;21.91;101125.81;106568;1253;61251;-87
2023/05/19 09:37:31;;;;;;;8.90;6.60;;;;;;;36.42;22.00;101125.77;106321;1251;66180;-86
2023/05/19 09:40:19;;;;;;;12.10;7.20;;;;;;;36.71;20.96;101127.20;106366;1257;61354;-85
2023/05/19 09:43:07;;;;;;;10.90;7.00;;;;;;;36.38;21.22;101130.10;106581;1254;61215;-87
2023/05/19 09:46:05;;;;;;;9.50;6.80;;;;;;;35.62;22.12;101124.67;106352;1251;68182;-86
2023/05/19 11:04:46;;;;;;;8.20;5.60;;;;;;;37.41;18.86;101087.81;106512;1254;61183;-87
2023/05/19 11:07:41;;;;;;;6.50;4.80;;;;;;;37.70;17.57;101083.40;106425;1257;68198;-87
2023/05/19 11:10:29;;;;;;;11.40;6.00;;;;;;;37.66;17.91;101081.40;106487;1254;62110;-87
2023/05/19 11:13:21;;;;;;;6.70;5.30;;;;;;;37.43;17.95;101084.27;106376;1256;65037;-87
2023/05/19 11:16:10;;;;;;;6.70;5.20;;;;;;;37.00;17.93;101083.11;106565;1251;61605;-87
2023/05/19 11:18:58;;;;;;;8.80;6.10;;;;;;;36.51;18.52;101081.00;106308;1256;61231;-87
2023/05/19 11:21:47;;;;;;;8.20;5.00;;;;;;;36.17;19.33;101079.13;106538;1251;67951;-87
2023/05/19 11:24:39;;;;;;;8.40;5.60;;;;;;;35.70;19.97;101073.88;106486;1257;62056;-87
2023/05/19 11:27:31;;;;;;;8.70;5.40;;;;;;;36.47;19.38;101071.90;106414;1256;65228;-86
2023/05/19 11:30:19;;;;;;;8.00;4.70;;;;;;;37.25;18.44;101069.69;106450;1257;59825;-87
2023/05/19 11:33:07;;;;;;;8.40;5.50;;;;;;;37.88;17.48;101071.56;106378;1255;61459;-87
2023/05/19 11:35:58;;;;;;;8.20;5.60;;;;;;;38.16;16.64;101071.39;106589;1256;68045;-87
2023/05/19 11:38:46;;;;;;;6.30;4.90;;;;;;;38.28;16.95;101070.48;106422;1252;62070;-87
2023/05/19 11:41:38;;;;;;;7.10;5.20;;;;;;;38.46;16.53;101067.98;106352;1254;65311;-87
2023/05/19 11:44:26;;;;;;;7.60;5.50;;;;;;;38.60;16.63;101068.49;106565;1255;61284;-86
2023/05/19 11:47:14;;;;;;;11.00;5.40;;;;;;;38.48;16.46;101070.02;106556;1257;61757;-87
2023/05/19 11:50:03;;;;;;;10.90;5.70;;;;;;;38.15;16.98;101071.23;106473;1251;68102;-86
2023/05/19 11:52:52;;;;;;;7.20;5.30;;;;;;;37.80;17.56;101073.67;106574;1257;61318;-87
2023/05/19 11:55:46;;;;;;;7.10;5.50;;;;;;;37.55;17.92;101073.11;106507;1253;66110;-87
2023/05/19 11:58:36;;;;;;;6.90;5.30;;;;;;;37.37;18.60;101077.10;106395;1255;61426;-88
2023/05/19 12:01:27;;;;;;;7.30;5.10;;;;;;;37.36;18.80;101071.42;106734;1251;61224;-81
2023/05/19 12:04:15;;;;;;;7.70;5.80;;;;;;;37.40;18.15;101069.60;106374;1259;66872;-81
2023/05/19 12:07:03;;;;;;;7.90;5.80;;;;;;;37.37;18.47;101065.20;106551;1251;62486;-81
2023/05/19 12:09:52;;;;;;;11.00;5.70;;;;;;;37.28;18.01;101062.94;106483;1254;65053;-88
2023/05/19 12:12:41;;;;;;;8.00;5.80;;;;;;;37.09;18.74;101060.11;106278;1262;61212;-88
2023/05/19 12:15:30;;;;;;;8.70;5.60;;;;;;;37.12;19.04;101062.40;106399;1257;61381;-81
2023/05/19 12:18:18;;;;;;;7.40;5.80;;;;;;;36.82;19.44;101056.00;106493;1257;68214;-88
2023/05/19 12:21:07;;;;;;;7.70;5.50;;;;;;;36.74;19.72;101057.98;106496;1257;62242;-87
2023/05/19 12:23:55;;;;;;;7.60;5.40;;;;;;;36.78;19.93;101055.08;106451;1254;65968;-81
2023/05/19 12:26:43;;;;;;;7.80;4.90;;;;;;;37.25;19.81;101052.66;106455;1256;61260;-88
2023/05/19 12:29:31;;;;;;;7.90;5.20;;;;;;;37.47;19.60;101048.05;106527;1256;61144;-89
2023/05/19 12:32:27;;;;;;;11.10;5.80;;;;;;;37.80;19.07;101044.16;106461;1260;68216;-88
2023/05/19 12:35:15;;;;;;;8.00;5.20;;;;;;;38.48;17.88;101042.47;106459;1257;61209;-81
2023/05/19 12:38:04;;;;;;;7.40;5.00;;;;;;;38.43;17.82;101041.55;106466;1256;65119;-88
2023/05/19 12:40:52;;;;;;;10.30;5.10;;;;;;;38.27;17.06;101041.17;106437;1258;61345;-89
2023/05/19 12:43:40;;;;;;;8.30;5.40;;;;;;;37.75;17.53;101042.45;106518;1257;61317;-80
2023/05/19 12:46:28;;;;;;;9.10;6.20;;;;;;;37.33;18.12;101044.89;106345;1254;68426;-88
2023/05/19 12:49:17;;;;;;;9.50;5.40;;;;;;;37.24;18.85;101048.06;106340;1251;62146;-82
2023/05/19 12:52:05;;;;;;;8.10;5.60;;;;;;;37.33;19.08;101041.80;106413;1256;66224;-88
2023/05/19 12:55:09;;;;;;;8.20;5.20;;;;;;;37.65;18.84;101039.90;106337;1255;61152;-81
2023/05/19 12:57:58;;;;;;;8.00;5.40;;;;;;;38.11;18.53;101041.44;106646;1254;61173;-81
2023/05/19 13:00:48;;;;;;;7.60;5.20;;;;;;;38.42;18.18;101040.27;106361;1256;66825;-81
2023/05/19 13:03:42;;;;;;;8.80;5.00;;;;;;;38.96;17.77;101041.20;106416;1255;70716;-81
2023/05/19 13:06:32;;;;;;;7.20;5.10;;;;;;;38.63;18.10;101040.59;106445;1257;66053;-86
2023/05/19 13:09:20;;;;;;;5.90;4.70;;;;;;;38.92;17.60;101039.00;106422;1255;61783;-88
2023/05/19 13:12:08;;;;;;;8.40;5.30;;;;;;;39.03;17.76;101036.09;106528;1251;59733;-82
2023/05/19 13:14:58;;;;;;;7.40;5.40;;;;;;;39.33;16.98;101028.87;106437;1254;66754;-88
2023/05/19 13:17:47;;;;;;;7.90;5.40;;;;;;;39.87;16.32;101028.46;106371;1256;62154;-88
2023/05/19 13:20:36;;;;;;;6.50;5.00;;;;;;;39.95;15.81;101024.55;106472;1255;65042;-88
2023/05/19 13:23:25;;;;;;;6.10;5.00;;;;;;;40.03;15.29;101018.58;106502;1254;60115;-82
2023/05/19 13:26:13;;;;;;;6.10;4.90;;;;;;;40.40;15.60;101020.42;106629;1254;61148;-84
2023/05/19 13:29:01;;;;;;;6.60;4.20;;;;;;;40.79;14.81;101016.34;106311;1260;68160;-81
2023/05/19 13:31:50;;;;;;;8.60;4.40;;;;;;;40.79;14.71;101015.04;106436;1257;61937;-88
2023/05/19 13:34:38;;;;;;;6.70;3.90;;;;;;;40.61;14.08;101017.27;106429;1260;66362;-88
2023/05/19 13:37:27;;;;;;;7.40;3.90;;;;;;;40.68;14.25;101020.64;106457;1257;61339;-88
2023/05/19 13:40:15;;;;;;;5.50;4.80;;;;;;;40.90;14.77;101023.90;106458;1257;61233;-82
2023/05/19 13:43:04;;;;;;;7.30;5.20;;;;;;;40.42;15.38;101022.83;106463;1252;68689;-90
2023/05/19 13:45:53;;;;;;;6.40;5.20;;;;;;;39.95;15.74;101022.42;106524;1251;62177;-88
2023/05/19 13:48:41;;;;;;;9.70;5.10;;;;;;;39.96;15.39;101026.87;106377;1254;66454;-89
2023/05/19 13:51:29;;;;;;;7.90;6.00;;;;;;;39.34;15.50;101027.31;106463;1257;61243;-82
2023/05/19 13:54:17;;;;;;;7.10;5.30;;;;;;;38.57;16.09;101035.52;106492;1251;60816;-89
2023/05/19 13:57:05;;;;;;;9.60;5.60;;;;;;;38.21;16.69;101032.55;106493;1251;68011;-82
2023/05/19 13:59:53;;;;;;;6.20;5.00;;;;;;;37.99;16.99;101032.85;106493;1254;62224;-88
2023/05/19 14:02:59;;;;;;;8.30;5.30;;;;;;;37.29;18.03;101033.89;106424;1258;66275;-88
2023/05/19 14:05:47;;;;;;;9.30;5.10;;;;;;;37.22;18.40;101036.55;106422;1260;61243;-88